sensor_id;sensor_type;location;lat;lon;timestamp;pressure;altitude;pressure_sealevel;temperature;humidity
40502;BME280;29631;49.168;9.848;2022-11-14T00:00:36;96572.50;;;11.92;75.17
40502;BME280;29631;49.168;9.848;2022-11-14T00:03:04;96593.16;;;12.02;76.01
40502;BME280;29631;49.168;9.848;2022-11-14T00:05:31;96591.56;;;11.94;75.17
40502;BME280;29631;49.168;9.848;2022-11-14T00:07:57;96618.75;;;12.01;75.17
40502;BME280;29631;49.168;9.848;2022-11-14T00:10:23;96606.66;;;11.87;75.48
40502;BME280;29631;49.168;9.848;2022-11-14T00:12:49;96605.84;;;11.87;75.61
40502;BME280;29631;49.168;9.848;2022-11-14T00:15:15;96604.28;;;11.79;76.30
40502;BME280;29631;49.168;9.848;2022-11-14T00:17:41;96619.69;;;11.82;76.73
40502;BME280;29631;49.168;9.848;2022-11-14T00:20:10;96621.56;;;11.75;76.25
40502;BME280;29631;49.168;9.848;2022-11-14T00:22:36;96633.97;;;11.75;76.15
40502;BME280;29631;49.168;9.848;2022-11-14T00:25:03;96609.66;;;11.66;76.31
40502;BME280;29631;49.168;9.848;2022-11-14T00:27:29;96624.41;;;11.80;77.23
40502;BME280;29631;49.168;9.848;2022-11-14T00:29:54;96588.09;;;11.69;76.40
40502;BME280;29631;49.168;9.848;2022-11-14T00:32:20;96603.44;;;11.85;76.92
40502;BME280;29631;49.168;9.848;2022-11-14T00:34:48;96616.88;;;11.77;76.84
40502;BME280;29631;49.168;9.848;2022-11-14T00:37:13;96617.72;;;11.78;77.60
40502;BME280;29631;49.168;9.848;2022-11-14T00:39:39;96602.66;;;11.78;77.50
40502;BME280;29631;49.168;9.848;2022-11-14T00:42:05;96579.97;;;11.71;77.92
40502;BME280;29631;49.168;9.848;2022-11-14T00:44:31;96577.53;;;11.69;77.34
40502;BME280;29631;49.168;9.848;2022-11-14T00:46:57;96599.75;;;11.86;77.59
40502;BME280;29631;49.168;9.848;2022-11-14T00:49:23;96568.75;;;11.75;77.66
40502;BME280;29631;49.168;9.848;2022-11-14T00:51:48;96564.22;;;11.82;77.79
40502;BME280;29631;49.168;9.848;2022-11-14T00:54:14;96582.63;;;11.95;77.36
40502;BME280;29631;49.168;9.848;2022-11-14T00:56:40;96580.16;;;12.00;77.25
40502;BME280;29631;49.168;9.848;2022-11-14T00:59:06;96573.81;;;12.01;77.86
40502;BME280;29631;49.168;9.848;2022-11-14T01:01:31;96551.19;;;11.87;77.02
40502;BME280;29631;49.168;9.848;2022-11-14T01:03:57;96585.00;;;12.03;77.36
40502;BME280;29631;49.168;9.848;2022-11-14T01:06:23;96550.53;;;11.92;77.75
40502;BME280;29631;49.168;9.848;2022-11-14T01:08:51;96588.56;;;12.15;77.98
40502;BME280;29631;49.168;9.848;2022-11-14T01:11:20;96541.69;;;11.80;77.69
40502;BME280;29631;49.168;9.848;2022-11-14T01:13:46;96571.94;;;12.08;77.68
40502;BME280;29631;49.168;9.848;2022-11-14T01:16:12;96572.78;;;12.09;77.54
40502;BME280;29631;49.168;9.848;2022-11-14T01:18:39;96529.47;;;11.85;77.25
40502;BME280;29631;49.168;9.848;2022-11-14T01:21:08;96568.28;;;12.09;77.69
40502;BME280;29631;49.168;9.848;2022-11-14T01:23:34;96565.03;;;12.07;77.57
40502;BME280;29631;49.168;9.848;2022-11-14T01:26:03;96577.59;;;12.12;77.96
40502;BME280;29631;49.168;9.848;2022-11-14T01:28:29;96571.53;;;12.11;78.32
40502;BME280;29631;49.168;9.848;2022-11-14T01:30:55;96577.56;;;12.18;78.06
40502;BME280;29631;49.168;9.848;2022-11-14T01:33:21;96567.88;;;12.12;78.22
40502;BME280;29631;49.168;9.848;2022-11-14T01:35:46;96555.72;;;12.05;78.32
40502;BME280;29631;49.168;9.848;2022-11-14T01:38:14;96544.94;;;12.06;78.86
40502;BME280;29631;49.168;9.848;2022-11-14T01:40:45;96548.34;;;12.13;78.60
40502;BME280;29631;49.168;9.848;2022-11-14T01:45:59;96567.91;;;12.30;78.66
40502;BME280;29631;49.168;9.848;2022-11-14T01:48:38;96560.38;;;12.27;78.34
40502;BME280;29631;49.168;9.848;2022-11-14T01:53:43;96522.34;;;12.10;78.30
40502;BME280;29631;49.168;9.848;2022-11-14T01:56:14;96539.31;;;12.21;79.16
40502;BME280;29631;49.168;9.848;2022-11-14T01:58:46;96530.41;;;12.15;78.47
40502;BME280;29631;49.168;9.848;2022-11-14T02:01:13;96526.25;;;12.26;79.23
40502;BME280;29631;49.168;9.848;2022-11-14T02:03:42;96512.06;;;12.20;79.43
40502;BME280;29631;49.168;9.848;2022-11-14T02:06:13;96492.03;;;12.13;79.03
40502;BME280;29631;49.168;9.848;2022-11-14T02:08:40;96498.66;;;12.22;79.19
40502;BME280;29631;49.168;9.848;2022-11-14T02:11:10;96490.50;;;12.23;78.54
40502;BME280;29631;49.168;9.848;2022-11-14T02:13:37;96491.97;;;12.19;78.69
40502;BME280;29631;49.168;9.848;2022-11-14T02:16:03;96482.84;;;12.15;79.83
40502;BME280;29631;49.168;9.848;2022-11-14T02:18:29;96492.53;;;12.21;78.46
40502;BME280;29631;49.168;9.848;2022-11-14T02:20:55;96513.41;;;12.29;79.83
40502;BME280;29631;49.168;9.848;2022-11-14T02:23:26;96508.59;;;12.26;79.24
40502;BME280;29631;49.168;9.848;2022-11-14T02:25:53;96507.16;;;12.24;79.28
40502;BME280;29631;49.168;9.848;2022-11-14T02:28:19;96518.78;;;12.23;80.08
40502;BME280;29631;49.168;9.848;2022-11-14T02:30:46;96530.75;;;12.25;79.13
40502;BME280;29631;49.168;9.848;2022-11-14T02:33:13;96518.59;;;12.18;79.19
40502;BME280;29631;49.168;9.848;2022-11-14T02:35:39;96504.44;;;12.12;80.01
40502;BME280;29631;49.168;9.848;2022-11-14T02:38:05;96539.69;;;12.24;80.00
40502;BME280;29631;49.168;9.848;2022-11-14T02:40:31;96518.59;;;12.18;80.15
40502;BME280;29631;49.168;9.848;2022-11-14T02:42:57;96515.13;;;11.99;79.75
40502;BME280;29631;49.168;9.848;2022-11-14T02:45:23;96524.69;;;12.00;79.55
40502;BME280;29631;49.168;9.848;2022-11-14T02:47:49;96522.88;;;11.94;79.96
40502;BME280;29631;49.168;9.848;2022-11-14T02:50:16;96506.34;;;11.81;80.54
40502;BME280;29631;49.168;9.848;2022-11-14T02:52:42;96505.34;;;11.75;80.40
40502;BME280;29631;49.168;9.848;2022-11-14T02:55:09;96520.19;;;11.76;80.64
40502;BME280;29631;49.168;9.848;2022-11-14T02:57:35;96531.19;;;11.73;80.19
40502;BME280;29631;49.168;9.848;2022-11-14T03:00:00;96521.31;;;11.62;80.79
40502;BME280;29631;49.168;9.848;2022-11-14T03:02:26;96542.00;;;11.65;80.83
40502;BME280;29631;49.168;9.848;2022-11-14T03:04:52;96480.59;;;11.46;80.34
40502;BME280;29631;49.168;9.848;2022-11-14T03:07:18;96475.66;;;11.56;80.74
40502;BME280;29631;49.168;9.848;2022-11-14T03:09:44;96484.47;;;11.74;80.44
40502;BME280;29631;49.168;9.848;2022-11-14T03:12:10;96476.50;;;11.80;80.56
40502;BME280;29631;49.168;9.848;2022-11-14T03:14:35;96469.66;;;11.91;81.15
40502;BME280;29631;49.168;9.848;2022-11-14T03:17:01;96470.41;;;11.98;80.16
40502;BME280;29631;49.168;9.848;2022-11-14T03:19:27;96470.00;;;12.01;81.24
40502;BME280;29631;49.168;9.848;2022-11-14T03:21:53;96490.47;;;12.05;81.24
40502;BME280;29631;49.168;9.848;2022-11-14T03:24:19;96499.34;;;12.11;80.36
40502;BME280;29631;49.168;9.848;2022-11-14T03:26:44;96472.13;;;11.92;80.59
40502;BME280;29631;49.168;9.848;2022-11-14T03:29:10;96497.97;;;12.08;80.73
40502;BME280;29631;49.168;9.848;2022-11-14T03:31:36;96485.69;;;11.96;80.60
40502;BME280;29631;49.168;9.848;2022-11-14T03:34:01;96494.44;;;12.14;80.89
40502;BME280;29631;49.168;9.848;2022-11-14T03:36:27;96483.06;;;12.14;80.94
40502;BME280;29631;49.168;9.848;2022-11-14T03:38:53;96480.06;;;12.10;81.72
40502;BME280;29631;49.168;9.848;2022-11-14T03:41:19;96500.78;;;12.13;81.78
40502;BME280;29631;49.168;9.848;2022-11-14T03:43:44;96520.59;;;12.22;80.50
40502;BME280;29631;49.168;9.848;2022-11-14T03:46:10;96483.72;;;12.09;81.15
40502;BME280;29631;49.168;9.848;2022-11-14T03:48:36;96522.13;;;12.29;81.36
40502;BME280;29631;49.168;9.848;2022-11-14T03:51:01;96503.13;;;12.21;80.38
40502;BME280;29631;49.168;9.848;2022-11-14T03:53:27;96486.50;;;12.14;80.08
40502;BME280;29631;49.168;9.848;2022-11-14T03:55:54;96494.63;;;12.19;79.86
40502;BME280;29631;49.168;9.848;2022-11-14T03:58:20;96516.94;;;12.23;80.22
40502;BME280;29631;49.168;9.848;2022-11-14T04:00:46;96491.88;;;12.08;80.43
40502;BME280;29631;49.168;9.848;2022-11-14T04:03:11;96468.59;;;11.98;80.31
40502;BME280;29631;49.168;9.848;2022-11-14T04:05:37;96502.38;;;12.14;79.50
40502;BME280;29631;49.168;9.848;2022-11-14T04:08:06;96481.81;;;11.98;79.91
40502;BME280;29631;49.168;9.848;2022-11-14T04:10:32;96473.94;;;11.92;79.52
40502;BME280;29631;49.168;9.848;2022-11-14T04:12:58;96499.81;;;12.08;80.08
40502;BME280;29631;49.168;9.848;2022-11-14T04:15:23;96497.66;;;11.98;79.25
40502;BME280;29631;49.168;9.848;2022-11-14T04:17:50;96518.41;;;11.95;79.25
40502;BME280;29631;49.168;9.848;2022-11-14T04:20:16;96490.19;;;11.71;78.73
40502;BME280;29631;49.168;9.848;2022-11-14T04:22:41;96480.19;;;11.49;79.77
40502;BME280;29631;49.168;9.848;2022-11-14T04:25:08;96509.63;;;11.76;79.09
40502;BME280;29631;49.168;9.848;2022-11-14T04:27:34;96505.66;;;11.67;79.05
40502;BME280;29631;49.168;9.848;2022-11-14T04:30:00;96438.16;;;11.23;79.47
40502;BME280;29631;49.168;9.848;2022-11-14T04:32:26;96502.81;;;11.62;80.16
40502;BME280;29631;49.168;9.848;2022-11-14T04:34:51;96426.53;;;10.99;79.87
40502;BME280;29631;49.168;9.848;2022-11-14T04:37:17;96424.38;;;11.14;79.67
40502;BME280;29631;49.168;9.848;2022-11-14T04:39:43;96483.84;;;11.48;80.00
40502;BME280;29631;49.168;9.848;2022-11-14T04:42:09;96492.53;;;11.55;80.06
40502;BME280;29631;49.168;9.848;2022-11-14T04:44:34;96481.75;;;11.50;79.25
40502;BME280;29631;49.168;9.848;2022-11-14T04:47:00;96488.66;;;11.51;78.54
40502;BME280;29631;49.168;9.848;2022-11-14T04:49:26;96429.66;;;11.14;79.59
40502;BME280;29631;49.168;9.848;2022-11-14T04:51:52;96464.34;;;11.49;79.22
40502;BME280;29631;49.168;9.848;2022-11-14T04:54:17;96454.63;;;11.43;79.15
40502;BME280;29631;49.168;9.848;2022-11-14T04:56:43;96463.13;;;11.45;79.19
40502;BME280;29631;49.168;9.848;2022-11-14T04:59:09;96455.06;;;11.40;79.82
40502;BME280;29631;49.168;9.848;2022-11-14T05:01:35;96407.38;;;11.10;79.05
40502;BME280;29631;49.168;9.848;2022-11-14T05:04:00;96460.88;;;11.48;79.01
40502;BME280;29631;49.168;9.848;2022-11-14T05:06:26;96456.84;;;11.46;79.41
40502;BME280;29631;49.168;9.848;2022-11-14T05:08:52;96472.06;;;11.44;78.74
40502;BME280;29631;49.168;9.848;2022-11-14T05:11:19;96459.56;;;11.33;78.59
40502;BME280;29631;49.168;9.848;2022-11-14T05:13:45;96445.00;;;11.24;79.24
40502;BME280;29631;49.168;9.848;2022-11-14T05:16:11;96470.13;;;11.33;78.36
40502;BME280;29631;49.168;9.848;2022-11-14T05:18:38;96456.38;;;11.24;78.55
40502;BME280;29631;49.168;9.848;2022-11-14T05:21:04;96458.03;;;11.19;78.33
40502;BME280;29631;49.168;9.848;2022-11-14T05:23:30;96453.22;;;11.09;78.51
40502;BME280;29631;49.168;9.848;2022-11-14T05:26:08;96461.69;;;11.18;79.24
40502;BME280;29631;49.168;9.848;2022-11-14T05:28:34;96432.00;;;10.98;78.94
40502;BME280;29631;49.168;9.848;2022-11-14T05:31:11;96457.28;;;11.12;78.86
40502;BME280;29631;49.168;9.848;2022-11-14T05:33:38;96441.53;;;10.99;79.16
40502;BME280;29631;49.168;9.848;2022-11-14T05:36:06;96437.72;;;10.95;79.30
40502;BME280;29631;49.168;9.848;2022-11-14T05:38:33;96447.78;;;11.04;78.87
40502;BME280;29631;49.168;9.848;2022-11-14T05:41:08;96446.41;;;11.02;78.93
40502;BME280;29631;49.168;9.848;2022-11-14T05:43:34;96443.16;;;11.00;79.24
40502;BME280;29631;49.168;9.848;2022-11-14T05:46:04;96436.88;;;10.94;79.48
40502;BME280;29631;49.168;9.848;2022-11-14T05:48:30;96428.22;;;10.87;78.97
40502;BME280;29631;49.168;9.848;2022-11-14T05:51:01;96428.88;;;10.83;79.37
40502;BME280;29631;49.168;9.848;2022-11-14T05:53:29;96441.19;;;10.89;79.25
40502;BME280;29631;49.168;9.848;2022-11-14T05:55:59;96458.19;;;10.93;79.47
40502;BME280;29631;49.168;9.848;2022-11-14T05:58:25;96460.63;;;10.94;78.43
40502;BME280;29631;49.168;9.848;2022-11-14T06:00:51;96432.50;;;10.82;78.68
40502;BME280;29631;49.168;9.848;2022-11-14T06:03:16;96457.78;;;10.96;79.03
40502;BME280;29631;49.168;9.848;2022-11-14T06:05:42;96467.97;;;10.92;78.86
40502;BME280;29631;49.168;9.848;2022-11-14T06:08:08;96468.75;;;10.93;78.51
40502;BME280;29631;49.168;9.848;2022-11-14T06:10:34;96473.44;;;10.91;78.77
40502;BME280;29631;49.168;9.848;2022-11-14T06:13:01;96471.81;;;10.90;78.76
40502;BME280;29631;49.168;9.848;2022-11-14T06:15:27;96453.00;;;10.80;78.83
40502;BME280;29631;49.168;9.848;2022-11-14T06:17:53;96444.53;;;10.72;79.51
40502;BME280;29631;49.168;9.848;2022-11-14T06:20:20;96460.75;;;10.69;80.02
40502;BME280;29631;49.168;9.848;2022-11-14T06:22:45;96463.78;;;10.72;79.96
40502;BME280;29631;49.168;9.848;2022-11-14T06:25:11;96470.06;;;10.78;80.04
40502;BME280;29631;49.168;9.848;2022-11-14T06:27:37;96482.47;;;10.71;79.56
40502;BME280;29631;49.168;9.848;2022-11-14T06:30:03;96451.50;;;10.53;80.02
40502;BME280;29631;49.168;9.848;2022-11-14T06:32:29;96482.84;;;10.74;79.67
40502;BME280;29631;49.168;9.848;2022-11-14T06:34:54;96479.81;;;10.71;80.24
40502;BME280;29631;49.168;9.848;2022-11-14T06:37:20;96472.34;;;10.68;80.30
40502;BME280;29631;49.168;9.848;2022-11-14T06:39:46;96485.91;;;10.71;80.18
40502;BME280;29631;49.168;9.848;2022-11-14T06:42:12;96462.66;;;10.62;79.44
40502;BME280;29631;49.168;9.848;2022-11-14T06:44:40;96460.59;;;10.64;80.56
40502;BME280;29631;49.168;9.848;2022-11-14T06:47:05;96477.41;;;10.69;79.99
40502;BME280;29631;49.168;9.848;2022-11-14T06:49:31;96461.19;;;10.66;80.46
40502;BME280;29631;49.168;9.848;2022-11-14T06:51:57;96485.66;;;10.79;80.04
40502;BME280;29631;49.168;9.848;2022-11-14T06:54:22;96441.75;;;10.60;80.02
40502;BME280;29631;49.168;9.848;2022-11-14T06:56:48;96477.16;;;10.77;80.36
40502;BME280;29631;49.168;9.848;2022-11-14T06:59:14;96472.09;;;10.76;80.28
40502;BME280;29631;49.168;9.848;2022-11-14T07:01:39;96486.81;;;10.89;80.09
40502;BME280;29631;49.168;9.848;2022-11-14T07:04:05;96478.53;;;10.86;80.69
40502;BME280;29631;49.168;9.848;2022-11-14T07:06:31;96470.44;;;10.81;80.66
40502;BME280;29631;49.168;9.848;2022-11-14T07:08:57;96456.25;;;10.82;80.76
40502;BME280;29631;49.168;9.848;2022-11-14T07:11:26;96474.59;;;11.01;81.37
40502;BME280;29631;49.168;9.848;2022-11-14T07:14:03;96482.88;;;11.05;80.66
40502;BME280;29631;49.168;9.848;2022-11-14T07:16:34;96481.69;;;11.01;81.15
40502;BME280;29631;49.168;9.848;2022-11-14T07:19:05;96496.44;;;11.15;80.82
40502;BME280;29631;49.168;9.848;2022-11-14T07:21:32;96478.75;;;11.15;80.71
40502;BME280;29631;49.168;9.848;2022-11-14T07:23:58;96424.16;;;10.85;81.04
40502;BME280;29631;49.168;9.848;2022-11-14T07:26:25;96470.06;;;11.15;81.35
40502;BME280;29631;49.168;9.848;2022-11-14T07:28:51;96495.34;;;11.29;81.49
40502;BME280;29631;49.168;9.848;2022-11-14T07:31:18;96483.97;;;11.28;80.39
40502;BME280;29631;49.168;9.848;2022-11-14T07:33:45;96477.91;;;11.21;80.70
40502;BME280;29631;49.168;9.848;2022-11-14T07:36:12;96459.81;;;11.00;81.79
40502;BME280;29631;49.168;9.848;2022-11-14T07:38:39;96525.78;;;11.25;81.83
40502;BME280;29631;49.168;9.848;2022-11-14T07:41:13;96527.56;;;11.31;81.13
40502;BME280;29631;49.168;9.848;2022-11-14T07:43:40;96542.00;;;11.35;82.14
40502;BME280;29631;49.168;9.848;2022-11-14T07:46:09;96531.00;;;11.38;82.06
40502;BME280;29631;49.168;9.848;2022-11-14T07:48:36;96535.84;;;11.41;81.50
40502;BME280;29631;49.168;9.848;2022-11-14T07:51:05;96561.41;;;11.47;82.04
40502;BME280;29631;49.168;9.848;2022-11-14T07:53:32;96562.41;;;11.46;81.61
40502;BME280;29631;49.168;9.848;2022-11-14T07:56:06;96571.38;;;11.51;82.15
40502;BME280;29631;49.168;9.848;2022-11-14T07:58:37;96554.84;;;11.56;81.76
40502;BME280;29631;49.168;9.848;2022-11-14T08:01:05;96542.25;;;11.57;82.33
40502;BME280;29631;49.168;9.848;2022-11-14T08:03:32;96555.88;;;11.85;82.63
40502;BME280;29631;49.168;9.848;2022-11-14T08:06:10;96530.75;;;11.76;82.09
40502;BME280;29631;49.168;9.848;2022-11-14T08:08:37;96548.13;;;11.90;81.05
40502;BME280;29631;49.168;9.848;2022-11-14T08:11:03;96536.38;;;11.86;81.94
40502;BME280;29631;49.168;9.848;2022-11-14T08:13:30;96549.41;;;12.06;82.44
40502;BME280;29631;49.168;9.848;2022-11-14T08:15:55;96538.25;;;12.46;81.19
40502;BME280;29631;49.168;9.848;2022-11-14T08:18:21;96544.13;;;13.19;80.25
40502;BME280;29631;49.168;9.848;2022-11-14T08:20:47;96524.81;;;13.48;78.67
40502;BME280;29631;49.168;9.848;2022-11-14T08:23:13;96538.16;;;13.53;79.12
40502;BME280;29631;49.168;9.848;2022-11-14T08:25:40;96547.31;;;13.39;79.20
40502;BME280;29631;49.168;9.848;2022-11-14T08:28:06;96521.38;;;13.01;79.74
40502;BME280;29631;49.168;9.848;2022-11-14T08:30:31;96531.59;;;12.97;80.24
40502;BME280;29631;49.168;9.848;2022-11-14T08:33:01;96529.47;;;12.88;80.80
40502;BME280;29631;49.168;9.848;2022-11-14T08:35:27;96546.19;;;12.82;81.86
40502;BME280;29631;49.168;9.848;2022-11-14T08:37:54;96510.25;;;12.56;81.77
40502;BME280;29631;49.168;9.848;2022-11-14T08:40:19;96531.59;;;12.61;81.60
40502;BME280;29631;49.168;9.848;2022-11-14T08:42:45;96524.75;;;12.54;82.34
40502;BME280;29631;49.168;9.848;2022-11-14T08:45:11;96525.38;;;12.49;81.47
40502;BME280;29631;49.168;9.848;2022-11-14T08:47:36;96522.81;;;12.43;82.02
40502;BME280;29631;49.168;9.848;2022-11-14T08:50:03;96521.56;;;12.45;82.34
40502;BME280;29631;49.168;9.848;2022-11-14T08:52:29;96543.47;;;12.52;82.94
40502;BME280;29631;49.168;9.848;2022-11-14T08:54:55;96557.72;;;12.51;83.16
40502;BME280;29631;49.168;9.848;2022-11-14T08:57:20;96530.63;;;12.38;83.41
40502;BME280;29631;49.168;9.848;2022-11-14T08:59:46;96541.94;;;12.45;83.44
40502;BME280;29631;49.168;9.848;2022-11-14T09:02:13;96539.13;;;12.40;83.40
40502;BME280;29631;49.168;9.848;2022-11-14T09:04:38;96554.94;;;12.46;83.71
40502;BME280;29631;49.168;9.848;2022-11-14T09:07:05;96523.09;;;12.17;83.32
40502;BME280;29631;49.168;9.848;2022-11-14T09:09:30;96524.13;;;12.34;84.22
40502;BME280;29631;49.168;9.848;2022-11-14T09:11:56;96538.84;;;12.48;84.09
40502;BME280;29631;49.168;9.848;2022-11-14T09:14:23;96526.06;;;12.45;84.39
40502;BME280;29631;49.168;9.848;2022-11-14T09:16:49;96521.94;;;12.49;83.44
40502;BME280;29631;49.168;9.848;2022-11-14T09:19:15;96543.09;;;12.67;84.07
40502;BME280;29631;49.168;9.848;2022-11-14T09:21:41;96527.84;;;12.69;84.09
40502;BME280;29631;49.168;9.848;2022-11-14T09:24:07;96522.03;;;12.60;83.66
40502;BME280;29631;49.168;9.848;2022-11-14T09:26:32;96540.59;;;12.72;84.69
40502;BME280;29631;49.168;9.848;2022-11-14T09:28:59;96557.78;;;12.87;84.80
40502;BME280;29631;49.168;9.848;2022-11-14T09:31:25;96530.63;;;12.74;84.01
40502;BME280;29631;49.168;9.848;2022-11-14T09:33:51;96529.97;;;12.78;84.91
40502;BME280;29631;49.168;9.848;2022-11-14T09:36:17;96560.47;;;12.99;84.20
40502;BME280;29631;49.168;9.848;2022-11-14T09:38:43;96541.06;;;12.87;85.19
40502;BME280;29631;49.168;9.848;2022-11-14T09:41:29;96537.63;;;13.04;85.42
40502;BME280;29631;49.168;9.848;2022-11-14T09:44:20;96558.41;;;13.18;84.57
40502;BME280;29631;49.168;9.848;2022-11-14T09:47:02;96554.13;;;13.17;84.47
40502;BME280;29631;49.168;9.848;2022-11-14T09:49:37;96553.47;;;13.22;84.56
40502;BME280;29631;49.168;9.848;2022-11-14T09:52:34;96564.72;;;13.35;84.63
40502;BME280;29631;49.168;9.848;2022-11-14T09:55:27;96538.06;;;13.30;85.16
40502;BME280;29631;49.168;9.848;2022-11-14T09:57:54;96559.22;;;13.48;85.15
40502;BME280;29631;49.168;9.848;2022-11-14T10:00:24;96572.28;;;13.61;84.50
40502;BME280;29631;49.168;9.848;2022-11-14T10:03:02;96561.03;;;13.77;85.14
40502;BME280;29631;49.168;9.848;2022-11-14T10:11:34;96560.91;;;14.13;84.51
40502;BME280;29631;49.168;9.848;2022-11-14T10:20:37;96566.56;;;14.28;84.66
40502;BME280;29631;49.168;9.848;2022-11-14T10:23:23;96564.50;;;14.30;85.12
40502;BME280;29631;49.168;9.848;2022-11-14T10:26:21;96570.94;;;14.34;85.13
40502;BME280;29631;49.168;9.848;2022-11-14T10:29:47;96581.56;;;14.34;85.08
40502;BME280;29631;49.168;9.848;2022-11-14T10:38:23;96552.50;;;14.50;86.21
40502;BME280;29631;49.168;9.848;2022-11-14T10:41:02;96577.50;;;14.88;85.49
40502;BME280;29631;49.168;9.848;2022-11-14T10:43:43;96566.63;;;15.01;85.59
40502;BME280;29631;49.168;9.848;2022-11-14T10:46:27;96523.59;;;14.88;85.19
40502;BME280;29631;49.168;9.848;2022-11-14T10:48:55;96540.53;;;15.10;85.07
40502;BME280;29631;49.168;9.848;2022-11-14T10:51:31;96558.72;;;15.29;85.11
40502;BME280;29631;49.168;9.848;2022-11-14T10:54:25;96560.06;;;15.43;85.03
40502;BME280;29631;49.168;9.848;2022-11-14T10:56:53;96545.16;;;15.42;84.92
40502;BME280;29631;49.168;9.848;2022-11-14T10:59:21;96540.31;;;15.50;85.17
40502;BME280;29631;49.168;9.848;2022-11-14T11:04:34;96537.56;;;15.62;85.77
40502;BME280;29631;49.168;9.848;2022-11-14T11:09:38;96536.06;;;15.66;85.35
40502;BME280;29631;49.168;9.848;2022-11-14T11:12:46;96524.41;;;15.67;85.81
40502;BME280;29631;49.168;9.848;2022-11-14T11:17:53;96529.41;;;15.80;86.10
40502;BME280;29631;49.168;9.848;2022-11-14T11:23:19;96528.59;;;15.96;86.08
40502;BME280;29631;49.168;9.848;2022-11-14T11:26:06;96531.97;;;16.07;86.07
40502;BME280;29631;49.168;9.848;2022-11-14T11:28:35;96505.56;;;16.17;86.23
40502;BME280;29631;49.168;9.848;2022-11-14T11:31:06;96510.56;;;16.30;85.61
40502;BME280;29631;49.168;9.848;2022-11-14T11:33:34;96512.25;;;16.36;85.92
40502;BME280;29631;49.168;9.848;2022-11-14T11:36:19;96533.28;;;16.54;85.95
40502;BME280;29631;49.168;9.848;2022-11-14T11:38:46;96535.03;;;16.65;86.31
40502;BME280;29631;49.168;9.848;2022-11-14T11:43:55;96509.53;;;16.69;85.63
40502;BME280;29631;49.168;9.848;2022-11-14T11:52:01;96520.47;;;16.89;85.25
40502;BME280;29631;49.168;9.848;2022-11-14T11:54:41;96518.84;;;16.88;84.68
40502;BME280;29631;49.168;9.848;2022-11-14T11:57:15;96514.00;;;16.85;84.98
40502;BME280;29631;49.168;9.848;2022-11-14T11:59:50;96510.28;;;16.86;84.87
40502;BME280;29631;49.168;9.848;2022-11-14T12:02:25;96510.72;;;16.78;85.25
40502;BME280;29631;49.168;9.848;2022-11-14T12:04:52;96457.66;;;16.50;85.42
40502;BME280;29631;49.168;9.848;2022-11-14T12:10:21;96497.59;;;16.93;85.00
40502;BME280;29631;49.168;9.848;2022-11-14T12:25:34;96499.75;;;17.39;84.12
40502;BME280;29631;49.168;9.848;2022-11-14T12:31:08;96495.00;;;17.41;84.23
40502;BME280;29631;49.168;9.848;2022-11-14T12:34:00;96493.91;;;17.42;84.51
40502;BME280;29631;49.168;9.848;2022-11-14T12:36:31;96494.72;;;17.42;84.38
40502;BME280;29631;49.168;9.848;2022-11-14T12:38:59;96500.66;;;17.49;84.54
40502;BME280;29631;49.168;9.848;2022-11-14T12:41:32;96493.91;;;17.42;84.16
40502;BME280;29631;49.168;9.848;2022-11-14T12:47:11;96488.59;;;17.42;84.45
40502;BME280;29631;49.168;9.848;2022-11-14T12:49:58;96487.00;;;17.41;84.09
40502;BME280;29631;49.168;9.848;2022-11-14T12:52:41;96490.19;;;17.43;84.18
40502;BME280;29631;49.168;9.848;2022-11-14T12:58:12;96475.16;;;17.32;84.33
40502;BME280;29631;49.168;9.848;2022-11-14T13:06:04;96481.34;;;17.37;84.05
40502;BME280;29631;49.168;9.848;2022-11-14T13:11:34;96500.50;;;17.34;84.47
40502;BME280;29631;49.168;9.848;2022-11-14T13:14:20;96487.69;;;17.31;84.18
40502;BME280;29631;49.168;9.848;2022-11-14T13:36:53;96449.72;;;17.46;83.35
40502;BME280;29631;49.168;9.848;2022-11-14T13:42:27;96453.56;;;17.91;82.47
40502;BME280;29631;49.168;9.848;2022-11-14T13:50:49;96450.31;;;19.12;79.84
40502;BME280;29631;49.168;9.848;2022-11-14T13:53:20;96453.03;;;19.27;80.26
40502;BME280;29631;49.168;9.848;2022-11-14T14:07:07;96454.50;;;18.98;81.66
40502;BME280;29631;49.168;9.848;2022-11-14T14:21:56;96447.72;;;18.71;81.06
40502;BME280;29631;49.168;9.848;2022-11-14T14:25:03;96439.69;;;18.66;81.83
40502;BME280;29631;49.168;9.848;2022-11-14T14:28:17;96411.00;;;18.42;81.93
40502;BME280;29631;49.168;9.848;2022-11-14T14:31:23;96429.19;;;18.50;81.56
40502;BME280;29631;49.168;9.848;2022-11-14T14:33:51;96423.00;;;18.39;81.80
40502;BME280;29631;49.168;9.848;2022-11-14T14:36:22;96445.22;;;18.50;81.61
40502;BME280;29631;49.168;9.848;2022-11-14T14:41:35;96444.34;;;18.39;81.43
40502;BME280;29631;49.168;9.848;2022-11-14T14:44:01;96449.69;;;18.39;81.44
40502;BME280;29631;49.168;9.848;2022-11-14T14:46:31;96447.00;;;18.34;81.82
40502;BME280;29631;49.168;9.848;2022-11-14T14:49:02;96448.06;;;18.33;81.23
40502;BME280;29631;49.168;9.848;2022-11-14T14:51:34;96450.44;;;18.30;81.27
40502;BME280;29631;49.168;9.848;2022-11-14T14:54:01;96451.47;;;18.24;80.93
40502;BME280;29631;49.168;9.848;2022-11-14T14:56:27;96443.38;;;18.19;81.12
40502;BME280;29631;49.168;9.848;2022-11-14T14:58:53;96442.56;;;18.14;80.38
40502;BME280;29631;49.168;9.848;2022-11-14T15:01:33;96395.13;;;17.84;80.83
40502;BME280;29631;49.168;9.848;2022-11-14T15:04:07;96440.97;;;18.17;80.34
40502;BME280;29631;49.168;9.848;2022-11-14T15:06:38;96451.97;;;18.21;81.22
40502;BME280;29631;49.168;9.848;2022-11-14T15:11:40;96412.22;;;17.88;80.63
40502;BME280;29631;49.168;9.848;2022-11-14T15:14:14;96435.31;;;18.09;80.30
40502;BME280;29631;49.168;9.848;2022-11-14T15:16:41;96433.66;;;18.03;80.35
40502;BME280;29631;49.168;9.848;2022-11-14T15:19:14;96434.47;;;18.04;80.90
40502;BME280;29631;49.168;9.848;2022-11-14T15:21:40;96437.41;;;18.02;80.83
40502;BME280;29631;49.168;9.848;2022-11-14T15:24:19;96433.88;;;17.97;80.92